Akk, Virginia
Current Conditions -  °F | °C
As of 6:35 PM on Monday 22 Dec 2014 (Local Time) from KFYJ Reporting Station
Overcast Overcast  
Wind Chill: 39°   Ceiling: 300
Heat Index: 42°   Visibility: 2mi
Dew Point: 39°   Wind: 5mph
Humidity: 91%   Direction: 340°NNW
Pressure: 30.12"   Gusts: NA
Location:  37.4383°N, 76.5764°W
Report Text: KFYJ 222335Z AUTO 34004KT 2SM OVC003 06/04 A3012 RMK AO2 T00550041
Loading
Personal Weather Stations






























Interactive Weather Map New forecast layout! Learn more

10-Day Weather Forecast

Advertisements
Track Severe Weather on mobile